createdAt,value
2024-03-02T00:00:23.634Z,98465.38
2024-03-02T00:02:51.273Z,98455.59
2024-03-02T00:05:23.835Z,98458.66
2024-03-02T00:07:59.217Z,98462.09
2024-03-02T00:10:32.817Z,98459.25
2024-03-02T00:13:00.215Z,98458.81
2024-03-02T00:15:45.763Z,98466.09
2024-03-02T00:18:15.620Z,98467.59
2024-03-02T00:20:43.400Z,98475.00
2024-03-02T00:23:15.030Z,98463.19
2024-03-02T00:25:47.908Z,98474.81
2024-03-02T00:28:20.019Z,98478.22
2024-03-02T00:30:58.792Z,98477.78
2024-03-02T00:33:32.895Z,98480.06
2024-03-02T00:36:02.192Z,98478.84
2024-03-02T00:38:30.586Z,98482.25
2024-03-02T00:41:00.134Z,98488.84
2024-03-02T00:43:39.335Z,98485.66
2024-03-02T00:46:07.570Z,98474.19
2024-03-02T00:48:38.072Z,98478.84
2024-03-02T00:51:05.537Z,98491.25
2024-03-02T00:53:36.308Z,98486.16
2024-03-02T00:56:04.151Z,98479.09
2024-03-02T00:58:31.448Z,98484.22
2024-03-02T01:00:58.900Z,98478.78
2024-03-02T01:03:26.331Z,98483.50
2024-03-02T01:05:53.879Z,98482.75
2024-03-02T01:08:21.271Z,98488.53
2024-03-02T01:10:48.573Z,98488.53
2024-03-02T01:13:15.915Z,98488.97
2024-03-02T01:15:43.211Z,98493.31
2024-03-02T01:18:10.683Z,98480.44
2024-03-02T01:20:38.000Z,98488.28
2024-03-02T01:23:05.327Z,98482.81
2024-03-02T01:25:32.672Z,98492.63
2024-03-02T01:28:00.009Z,98492.16
2024-03-02T01:30:27.574Z,98482.75
2024-03-02T01:32:54.942Z,98484.22
2024-03-02T01:35:22.267Z,98493.53
2024-03-02T01:37:49.535Z,98487.63
2024-03-02T01:40:16.923Z,98484.69
2024-03-02T01:42:45.340Z,98491.75
2024-03-02T01:45:12.738Z,98487.75
2024-03-02T01:47:40.278Z,98486.16
2024-03-02T01:50:08.810Z,98492.78
2024-03-02T01:52:36.210Z,98486.84
2024-03-02T01:55:03.753Z,98486.41
2024-03-02T01:57:32.071Z,98489.06
2024-03-02T01:59:59.705Z,98484.34
2024-03-02T02:02:27.010Z,98490.19
2024-03-02T02:04:54.261Z,98487.44
2024-03-02T02:07:21.630Z,98496.75
2024-03-02T02:09:48.999Z,98491.97
2024-03-02T02:12:17.084Z,98497.81
2024-03-02T02:14:51.433Z,98498.16
2024-03-02T02:17:18.767Z,98504.28
2024-03-02T02:19:46.075Z,98498.84
2024-03-02T02:22:13.455Z,98501.13
2024-03-02T02:24:43.852Z,98492.47
2024-03-02T02:27:11.566Z,98494.38
2024-03-02T02:29:39.006Z,98497.03
2024-03-02T02:32:06.693Z,98511.34
2024-03-02T02:34:35.049Z,98512.81
2024-03-02T02:37:02.825Z,98513.16
2024-03-02T02:39:30.299Z,98509.97
2024-03-02T02:41:57.621Z,98502.94
2024-03-02T02:44:25.308Z,98502.47
2024-03-02T02:46:53.725Z,98502.81
2024-03-02T02:49:20.977Z,98505.91
2024-03-02T02:51:48.313Z,98509.41
2024-03-02T02:54:15.570Z,98502.69
2024-03-02T02:56:42.903Z,98504.97
2024-03-02T02:59:10.260Z,98504.84
2024-03-02T03:01:37.565Z,98507.94
2024-03-02T03:04:05.011Z,98507.94
2024-03-02T03:06:32.774Z,98498.16
2024-03-02T03:09:00.082Z,98500.09
2024-03-02T03:11:27.731Z,98493.84
2024-03-02T03:13:55.714Z,98499.31
2024-03-02T03:16:22.985Z,98493.06
2024-03-02T03:18:53.035Z,98500.44
2024-03-02T03:21:20.459Z,98498.81
2024-03-02T03:23:47.784Z,98492.13
2024-03-02T03:26:15.092Z,98497.56
2024-03-02T03:28:44.146Z,98496.47
2024-03-02T03:31:12.468Z,98499.19
2024-03-02T03:33:39.732Z,98498.81
2024-03-02T03:36:07.225Z,98503.03
2024-03-02T03:38:34.517Z,98499.19
2024-03-02T03:41:01.803Z,98499.06
2024-03-02T03:43:29.096Z,98497.50
2024-03-02T03:45:56.564Z,98501.00
2024-03-02T03:48:23.927Z,98494.31
2024-03-02T03:50:51.266Z,98512.25
2024-03-02T03:53:18.515Z,98506.47
2024-03-02T03:55:47.896Z,98500.66
2024-03-02T03:58:15.584Z,98510.44
2024-03-02T04:00:43.004Z,98506.56
2024-03-02T04:03:10.359Z,98512.00
2024-03-02T04:05:37.615Z,98512.81
2024-03-02T04:08:05.263Z,98519.75
2024-03-02T04:10:32.564Z,98514.97
2024-03-02T04:12:59.982Z,98525.44
2024-03-02T04:15:27.358Z,98514.38
2024-03-02T04:17:54.699Z,98522.13
2024-03-02T04:20:22.109Z,98527.94
2024-03-02T04:22:49.377Z,98517.34
2024-03-02T04:25:16.681Z,98521.91
2024-03-02T04:27:43.953Z,98520.28
2024-03-02T04:30:11.770Z,98517.13
2024-03-02T04:32:40.174Z,98517.44
2024-03-02T04:35:11.307Z,98511.53
2024-03-02T04:37:38.929Z,98512.34
2024-03-02T04:40:09.677Z,98512.78
2024-03-02T04:42:37.311Z,98501.09
2024-03-02T04:45:04.854Z,98513.94
2024-03-02T04:47:32.229Z,98515.50
2024-03-02T04:49:59.531Z,98517.13
2024-03-02T04:52:26.861Z,98524.13
2024-03-02T04:55:12.816Z,98527.66
2024-03-02T04:57:40.131Z,98527.66
2024-03-02T05:00:10.008Z,98531.19
2024-03-02T05:02:37.481Z,98527.66
2024-03-02T05:05:05.186Z,98525.75
2024-03-02T05:07:32.614Z,98530.41
2024-03-02T05:10:00.899Z,98520.66
2024-03-02T05:12:46.485Z,98524.13
2024-03-02T05:15:15.224Z,98522.56
2024-03-02T05:17:46.694Z,98529.59
2024-03-02T05:20:14.325Z,98528.03
2024-03-02T05:22:41.789Z,98521.75
2024-03-02T05:25:10.898Z,98530.63
2024-03-02T05:27:38.352Z,98523.59
2024-03-02T05:30:07.660Z,98517.66
2024-03-02T05:32:35.352Z,98516.09
2024-03-02T05:35:04.223Z,98530.03
2024-03-02T05:37:31.590Z,98526.19
2024-03-02T05:40:00.644Z,98532.88
2024-03-02T05:42:29.056Z,98528.56
2024-03-02T05:44:56.432Z,98535.47
2024-03-02T05:47:23.847Z,98537.09
2024-03-02T05:49:51.220Z,98527.31
2024-03-02T05:52:18.541Z,98527.31
2024-03-02T05:54:45.803Z,98534.69
2024-03-02T05:57:35.176Z,98525.38
2024-03-02T06:00:02.626Z,98528.56
2024-03-02T06:02:29.867Z,98528.56
2024-03-02T06:04:57.747Z,98536.75
2024-03-02T06:07:25.038Z,98534.00
2024-03-02T06:09:53.660Z,98541.88
2024-03-02T06:12:21.076Z,98534.00
2024-03-02T06:14:48.407Z,98541.06
2024-03-02T06:17:16.684Z,98536.28
2024-03-02T06:19:43.998Z,98548.78
2024-03-02T06:22:11.531Z,98540.63
2024-03-02T06:24:39.011Z,98548.00
2024-03-02T06:27:07.925Z,98550.72
2024-03-02T06:29:35.264Z,98555.38
2024-03-02T06:32:02.561Z,98558.09
2024-03-02T06:34:29.878Z,98553.75
2024-03-02T06:36:57.274Z,98559.69
2024-03-02T06:39:24.719Z,98556.16
2024-03-02T06:41:52.098Z,98560.47
2024-03-02T06:44:19.402Z,98558.88
2024-03-02T06:46:46.639Z,98569.44
2024-03-02T06:49:13.893Z,98566.25
2024-03-02T06:51:43.352Z,98567.88
2024-03-02T06:54:10.696Z,98564.34
2024-03-02T06:56:39.820Z,98563.09
2024-03-02T06:59:07.299Z,98577.38
2024-03-02T07:01:34.661Z,98573.72
2024-03-02T07:04:02.104Z,98568.63
2024-03-02T07:06:29.415Z,98571.22
2024-03-02T07:08:56.746Z,98575.09
2024-03-02T07:11:24.068Z,98565.31
2024-03-02T07:13:51.403Z,98577.34
2024-03-02T07:16:34.178Z,98575.41
2024-03-02T07:19:02.988Z,98572.69
2024-03-02T07:21:31.329Z,98566.09
2024-03-02T07:24:00.573Z,98570.75
2024-03-02T07:28:58.651Z,98577.81
2024-03-02T07:31:25.943Z,98577.81
2024-03-02T07:33:53.877Z,98579.38
2024-03-02T07:36:21.271Z,98588.34
2024-03-02T07:38:51.481Z,98577.16
2024-03-02T07:41:18.872Z,98585.78
2024-03-02T07:43:46.223Z,98587.81
2024-03-02T07:46:14.638Z,98591.47
2024-03-02T07:48:44.395Z,98585.34
2024-03-02T07:51:11.682Z,98591.72
2024-03-02T07:53:39.043Z,98596.47
2024-03-02T07:56:07.261Z,98598.53
2024-03-02T07:58:36.560Z,98594.34
2024-03-02T08:01:04.196Z,98590.16
2024-03-02T08:03:33.572Z,98596.06
2024-03-02T08:06:01.449Z,98600.06
2024-03-02T08:08:28.822Z,98598.59
2024-03-02T08:10:58.712Z,98603.38
2024-03-02T08:13:26.240Z,98610.84
2024-03-02T08:15:53.601Z,98605.19
2024-03-02T08:18:21.064Z,98607.72
2024-03-02T08:20:48.360Z,98608.25
2024-03-02T08:23:15.683Z,98604.53
2024-03-02T08:25:43.632Z,98602.72
2024-03-02T08:28:12.340Z,98600.56
2024-03-02T08:30:39.658Z,98613.19
2024-03-02T08:33:07.170Z,98611.81
2024-03-02T08:35:37.427Z,98606.16
2024-03-02T08:38:05.643Z,98609.13
2024-03-02T08:40:33.149Z,98603.44
2024-03-02T08:43:00.692Z,98607.06
2024-03-02T08:45:28.242Z,98612.28
2024-03-02T08:47:55.816Z,98612.84
2024-03-02T08:50:23.064Z,98605.13
2024-03-02T08:52:50.322Z,98606.16
2024-03-02T08:55:17.593Z,98606.69
2024-03-02T08:57:46.755Z,98613.53
2024-03-02T09:00:14.317Z,98623.75
2024-03-02T09:02:41.600Z,98613.41
2024-03-02T09:05:09.987Z,98621.72
2024-03-02T09:07:37.379Z,98629.56
2024-03-02T09:10:05.283Z,98617.94
2024-03-02T09:12:33.381Z,98621.91
2024-03-02T09:15:07.270Z,98619.63
2024-03-02T09:17:34.672Z,98618.94
2024-03-02T09:20:06.771Z,98618.59
2024-03-02T09:22:34.142Z,98621.78
2024-03-02T09:25:01.591Z,98617.47
2024-03-02T09:27:31.545Z,98618.38
2024-03-02T09:29:58.891Z,98627.81
2024-03-02T09:32:26.242Z,98624.03
2024-03-02T09:34:54.672Z,98620.63
2024-03-02T09:37:21.947Z,98622.19
2024-03-02T09:39:49.287Z,98617.19
2024-03-02T09:42:16.932Z,98622.31
2024-03-02T09:44:44.460Z,98627.41
2024-03-02T09:47:11.835Z,98626.72
2024-03-02T09:49:40.362Z,98616.59
2024-03-02T09:52:08.495Z,98624.47
2024-03-02T09:54:35.831Z,98618.28
2024-03-02T09:57:06.121Z,98618.28
2024-03-02T09:59:33.483Z,98622.63
2024-03-02T10:02:03.818Z,98608.25
2024-03-02T10:04:36.891Z,98612.69
2024-03-02T10:07:10.036Z,98611.63
2024-03-02T10:09:37.338Z,98610.25
2024-03-02T10:12:12.948Z,98607.69
2024-03-02T10:14:40.877Z,98603.78
2024-03-02T10:17:10.336Z,98607.41
2024-03-02T10:19:40.059Z,98606.34
2024-03-02T10:22:09.676Z,98604.84
2024-03-02T10:24:42.565Z,98609.34
2024-03-02T10:27:24.320Z,98614.78
2024-03-02T10:29:51.717Z,98611.78
2024-03-02T10:32:19.157Z,98610.09
2024-03-02T10:34:48.735Z,98600.94
2024-03-02T10:37:16.627Z,98621.84
2024-03-02T10:39:44.251Z,98609.31
2024-03-02T10:42:13.552Z,98607.81
2024-03-02T10:44:41.397Z,98607.97
2024-03-02T10:47:10.403Z,98608.94
2024-03-02T10:49:39.772Z,98599.19
2024-03-02T10:52:07.271Z,98589.84
2024-03-02T10:54:38.263Z,98600.00
2024-03-02T10:57:08.405Z,98610.25
2024-03-02T10:59:48.873Z,98599.41
2024-03-02T11:02:18.568Z,98601.75
2024-03-02T11:04:49.517Z,98604.50
2024-03-02T11:07:20.560Z,98607.69
2024-03-02T11:09:58.885Z,98613.25
2024-03-02T11:12:56.686Z,98607.84
2024-03-02T11:15:27.621Z,98608.00
2024-03-02T11:17:56.073Z,98615.94
2024-03-02T11:20:24.315Z,98626.63
2024-03-02T11:22:52.268Z,98617.66
2024-03-02T11:25:27.962Z,98628.94
2024-03-02T11:27:55.253Z,98616.84
2024-03-02T11:30:35.195Z,98616.19
2024-03-02T11:33:10.880Z,98626.53
2024-03-02T11:35:44.245Z,98609.00
2024-03-02T11:38:13.573Z,98616.31
2024-03-02T11:40:42.112Z,98614.88
2024-03-02T11:43:10.683Z,98609.75
2024-03-02T11:45:41.654Z,98610.13
2024-03-02T11:48:13.922Z,98604.91
2024-03-02T11:50:45.417Z,98610.47
2024-03-02T11:53:13.833Z,98605.50
2024-03-02T11:55:42.130Z,98601.31
2024-03-02T11:58:09.960Z,98597.06
2024-03-02T12:00:37.832Z,98597.88
2024-03-02T12:03:09.901Z,98605.34
2024-03-02T12:05:37.694Z,98597.72
2024-03-02T12:08:10.358Z,98602.47
2024-03-02T12:10:38.695Z,98610.13
2024-03-02T12:13:08.804Z,98608.25
2024-03-02T12:15:38.359Z,98607.50
2024-03-02T12:18:06.603Z,98614.50
2024-03-02T12:20:34.783Z,98601.69
2024-03-02T12:23:04.083Z,98603.03
2024-03-02T12:25:33.106Z,98596.94
2024-03-02T12:28:02.596Z,98611.97
2024-03-02T12:30:36.997Z,98604.22
2024-03-02T12:33:04.752Z,98602.03
2024-03-02T12:35:32.856Z,98608.03
2024-03-02T12:38:00.191Z,98598.50
2024-03-02T12:40:28.577Z,98597.28
2024-03-02T12:42:55.941Z,98604.00
2024-03-02T12:45:26.809Z,98595.75
2024-03-02T12:47:54.536Z,98597.31
2024-03-02T12:50:22.457Z,98590.63
2024-03-02T12:52:56.386Z,98585.91
2024-03-02T12:55:25.084Z,98581.41
2024-03-02T12:57:53.777Z,98573.75
2024-03-02T13:00:22.970Z,98570.72
2024-03-02T13:02:52.794Z,98582.53
2024-03-02T13:05:21.408Z,98576.69
2024-03-02T13:07:50.115Z,98580.50
2024-03-02T13:10:18.964Z,98578.22
2024-03-02T13:12:46.966Z,98582.03
2024-03-02T13:15:18.200Z,98575.59
2024-03-02T13:17:49.435Z,98578.03
2024-03-02T13:20:18.485Z,98569.53
2024-03-02T13:22:45.828Z,98570.47
2024-03-02T13:25:13.512Z,98572.69
2024-03-02T13:27:41.230Z,98562.81
2024-03-02T13:30:09.937Z,98564.06
2024-03-02T13:32:37.293Z,98564.09
2024-03-02T13:35:05.008Z,98568.81
2024-03-02T13:37:32.307Z,98556.25
2024-03-02T13:39:59.692Z,98556.25
2024-03-02T13:42:28.675Z,98551.56
2024-03-02T13:44:56.231Z,98540.69
2024-03-02T13:47:23.853Z,98540.78
2024-03-02T13:49:51.198Z,98548.69
2024-03-02T13:52:18.736Z,98547.91
2024-03-02T13:54:48.725Z,98541.19
2024-03-02T13:57:16.330Z,98537.69
2024-03-02T13:59:44.806Z,98544.22
2024-03-02T14:02:13.363Z,98529.53
2024-03-02T14:04:41.007Z,98527.78
2024-03-02T14:07:09.045Z,98536.13
2024-03-02T14:09:39.083Z,98527.16
2024-03-02T14:12:07.069Z,98529.94
2024-03-02T14:14:34.534Z,98527.97
2024-03-02T14:17:05.048Z,98527.56
2024-03-02T14:19:33.093Z,98539.34
2024-03-02T14:22:00.787Z,98531.34
2024-03-02T14:24:30.629Z,98531.97
2024-03-02T14:27:06.333Z,98534.19
2024-03-02T14:29:44.879Z,98523.06
2024-03-02T14:32:12.313Z,98517.09
2024-03-02T14:34:40.608Z,98519.78
2024-03-02T14:37:08.413Z,98520.84
2024-03-02T14:39:36.734Z,98511.97
2024-03-02T14:42:04.271Z,98519.84
2024-03-02T14:44:31.650Z,98517.00
2024-03-02T14:47:00.206Z,98530.63
2024-03-02T14:49:28.170Z,98518.22
2024-03-02T14:51:55.667Z,98521.97
2024-03-02T14:54:23.143Z,98522.16
2024-03-02T14:56:51.539Z,98516.88
2024-03-02T14:59:18.789Z,98548.13
2024-03-02T15:01:46.327Z,98538.38
2024-03-02T15:04:13.764Z,98530.78
2024-03-02T15:06:41.147Z,98527.06
2024-03-02T15:09:09.276Z,98528.59
2024-03-02T15:11:36.648Z,98530.88
2024-03-02T15:14:04.025Z,98527.66
2024-03-02T15:16:31.522Z,98522.84
2024-03-02T15:18:58.777Z,98514.53
2024-03-02T15:21:26.186Z,98521.19
2024-03-02T15:23:53.492Z,98510.28
2024-03-02T15:26:20.826Z,98516.69
2024-03-02T15:28:48.666Z,98524.63
2024-03-02T15:31:16.280Z,98526.25
2024-03-02T15:33:43.699Z,98529.78
2024-03-02T15:36:11.175Z,98523.81
2024-03-02T15:38:42.480Z,98522.16
2024-03-02T15:41:10.552Z,98531.13
2024-03-02T15:43:40.441Z,98532.28
2024-03-02T15:46:08.429Z,98536.69
2024-03-02T15:48:35.974Z,98529.31
2024-03-02T15:51:06.772Z,98527.72
2024-03-02T15:53:34.783Z,98539.03
2024-03-02T15:56:03.753Z,98539.72
2024-03-02T15:58:32.041Z,98542.25
2024-03-02T16:00:59.454Z,98551.56
2024-03-02T16:03:26.930Z,98550.59
2024-03-02T16:05:54.300Z,98560.22
2024-03-02T16:08:21.555Z,98559.75
2024-03-02T16:10:48.812Z,98562.81
2024-03-02T16:13:16.151Z,98566.59
2024-03-02T16:15:43.606Z,98566.47
2024-03-02T16:18:10.958Z,98569.97
2024-03-02T16:20:38.498Z,98565.94
2024-03-02T16:23:05.981Z,98568.56
2024-03-02T16:25:38.217Z,98575.50
2024-03-02T16:28:05.772Z,98566.78
2024-03-02T16:30:33.156Z,98576.53
2024-03-02T16:33:00.515Z,98580.38
2024-03-02T16:35:27.890Z,98585.44
2024-03-02T16:37:55.139Z,98581.75
2024-03-02T16:40:22.449Z,98586.41
2024-03-02T16:42:50.317Z,98597.38
2024-03-02T16:45:17.706Z,98595.38
2024-03-02T16:47:45.129Z,98594.19
2024-03-02T16:50:13.237Z,98600.13
2024-03-02T16:52:40.602Z,98599.69
2024-03-02T16:55:08.541Z,98595.38
2024-03-02T16:57:36.040Z,98608.66
2024-03-02T17:00:03.692Z,98602.00
2024-03-02T17:02:31.070Z,98613.34
2024-03-02T17:04:58.358Z,98617.97
2024-03-02T17:07:27.043Z,98615.59
2024-03-02T17:09:57.062Z,98610.84
2024-03-02T17:12:24.874Z,98616.69
2024-03-02T17:14:52.833Z,98621.72
2024-03-02T17:17:20.176Z,98628.72
2024-03-02T17:19:47.425Z,98620.09
2024-03-02T17:22:14.745Z,98624.44
2024-03-02T17:24:42.090Z,98620.50
2024-03-02T17:27:09.337Z,98633.44
2024-03-02T17:29:36.578Z,98625.88
2024-03-02T17:32:04.065Z,98638.34
2024-03-02T17:34:31.315Z,98635.91
2024-03-02T17:36:58.641Z,98638.13
2024-03-02T17:39:25.996Z,98638.47
2024-03-02T17:41:54.603Z,98647.00
2024-03-02T17:44:22.691Z,98637.47
2024-03-02T17:46:50.043Z,98646.34
2024-03-02T17:49:20.478Z,98658.81
2024-03-02T17:51:48.256Z,98652.09
2024-03-02T17:54:15.708Z,98661.13
2024-03-02T17:56:43.066Z,98672.09
2024-03-02T17:59:10.347Z,98668.56
2024-03-02T18:01:37.721Z,98674.03
2024-03-02T18:04:09.682Z,98671.66
2024-03-02T18:06:37.676Z,98670.78
2024-03-02T18:09:05.346Z,98671.59
2024-03-02T18:11:32.629Z,98672.72
2024-03-02T18:13:59.990Z,98677.41
2024-03-02T18:16:27.378Z,98676.19
2024-03-02T18:18:54.773Z,98676.03
2024-03-02T18:21:22.167Z,98689.22
2024-03-02T18:23:49.422Z,98686.41
2024-03-02T18:26:18.339Z,98685.06
2024-03-02T18:28:46.772Z,98686.50
2024-03-02T18:31:14.132Z,98686.31
2024-03-02T18:33:41.536Z,98685.91
2024-03-02T18:36:09.137Z,98685.38
2024-03-02T18:38:36.400Z,98691.13
2024-03-02T18:41:03.984Z,98687.84
2024-03-02T18:43:31.344Z,98704.19
2024-03-02T18:45:58.631Z,98705.69
2024-03-02T18:48:25.932Z,98712.22
2024-03-02T18:50:53.267Z,98715.28
2024-03-02T18:53:22.400Z,98714.41
2024-03-02T18:55:50.689Z,98717.41
2024-03-02T18:58:18.126Z,98707.97
2024-03-02T19:00:45.656Z,98713.78
2024-03-02T19:03:13.693Z,98718.81
2024-03-02T19:05:40.988Z,98720.66
2024-03-02T19:08:09.249Z,98717.91
2024-03-02T19:10:36.595Z,98720.22
2024-03-02T19:13:03.982Z,98722.50
2024-03-02T19:15:31.324Z,98724.81
2024-03-02T19:17:58.633Z,98718.44
2024-03-02T19:20:25.935Z,98727.81
2024-03-02T19:22:54.393Z,98719.94
2024-03-02T19:25:22.554Z,98728.50
2024-03-02T19:27:49.945Z,98728.50
2024-03-02T19:30:17.192Z,98730.00
2024-03-02T19:32:44.604Z,98730.31
2024-03-02T19:35:14.882Z,98741.97
2024-03-02T19:37:42.605Z,98729.00
2024-03-02T19:40:11.460Z,98736.75
2024-03-02T19:42:39.381Z,98726.50
2024-03-02T19:45:07.260Z,98733.13
2024-03-02T19:47:34.689Z,98734.97
2024-03-02T19:50:02.358Z,98736.44
2024-03-02T19:52:29.720Z,98737.94
2024-03-02T19:54:57.105Z,98740.25
2024-03-02T19:57:25.230Z,98736.63
2024-03-02T19:59:52.543Z,98744.81
2024-03-02T20:02:21.716Z,98737.75
2024-03-02T20:04:51.389Z,98746.19
2024-03-02T20:07:18.756Z,98742.56
2024-03-02T20:09:47.144Z,98735.84
2024-03-02T20:12:14.603Z,98746.00
2024-03-02T20:14:42.507Z,98735.75
2024-03-02T20:17:09.769Z,98743.50
2024-03-02T20:19:40.111Z,98746.56
2024-03-02T20:22:07.886Z,98745.78
2024-03-02T20:24:35.288Z,98748.06
2024-03-02T20:27:05.695Z,98747.63
2024-03-02T20:29:33.082Z,98746.03
2024-03-02T20:32:00.633Z,98744.78
2024-03-02T20:34:28.333Z,98747.41
2024-03-02T20:36:57.620Z,98745.81
2024-03-02T20:39:24.871Z,98739.09
2024-03-02T20:41:52.442Z,98746.06
2024-03-02T20:44:20.603Z,98748.78
2024-03-02T20:46:49.088Z,98744.00
2024-03-02T20:49:17.553Z,98739.34
2024-03-02T20:51:44.905Z,98754.16
2024-03-02T20:54:12.460Z,98742.75
2024-03-02T20:56:42.724Z,98751.28
2024-03-02T20:59:10.075Z,98746.50
2024-03-02T21:01:38.257Z,98744.13
2024-03-02T21:04:05.966Z,98746.41
2024-03-02T21:06:33.386Z,98742.88
2024-03-02T21:09:00.856Z,98752.56
2024-03-02T21:11:28.214Z,98752.22
2024-03-02T21:13:57.046Z,98747.91
2024-03-02T21:16:24.496Z,98752.94
2024-03-02T21:18:51.969Z,98754.06
2024-03-02T21:21:19.313Z,98752.44
2024-03-02T21:23:46.573Z,98748.91
2024-03-02T21:26:13.930Z,98750.41
2024-03-02T21:28:41.193Z,98754.72
2024-03-02T21:31:08.522Z,98753.13
2024-03-02T21:33:35.933Z,98748.81
2024-03-02T21:36:05.135Z,98752.69
2024-03-02T21:38:32.465Z,98756.09
2024-03-02T21:41:00.225Z,98748.94
2024-03-02T21:43:32.841Z,98752.03
2024-03-02T21:46:00.183Z,98760.53
2024-03-02T21:48:27.542Z,98761.22
2024-03-02T21:50:56.887Z,98762.72
2024-03-02T21:53:24.238Z,98762.25
2024-03-02T21:55:51.536Z,98761.81
2024-03-02T21:58:18.908Z,98768.75
2024-03-02T22:00:46.769Z,98765.56
2024-03-02T22:03:14.581Z,98759.97
2024-03-02T22:05:42.237Z,98765.78
2024-03-02T22:08:09.627Z,98770.78
2024-03-02T22:10:36.992Z,98771.47
2024-03-02T22:13:04.608Z,98777.28
2024-03-02T22:15:31.969Z,98768.28
2024-03-02T22:18:01.520Z,98761.22
2024-03-02T22:20:28.876Z,98776.81
2024-03-02T22:22:56.273Z,98770.88
2024-03-02T22:25:23.543Z,98768.50
2024-03-02T22:27:56.378Z,98777.06
2024-03-02T22:30:24.276Z,98774.88
2024-03-02T22:32:52.291Z,98774.41
2024-03-02T22:35:22.518Z,98777.81
2024-03-02T22:37:51.384Z,98773.84
2024-03-02T22:40:18.892Z,98782.34
2024-03-02T22:42:46.381Z,98776.44
2024-03-02T22:45:14.621Z,98771.19
2024-03-02T22:47:41.983Z,98775.06
2024-03-02T22:50:09.589Z,98765.16
2024-03-02T22:52:37.149Z,98771.75
2024-03-02T22:55:04.902Z,98763.09
2024-03-02T22:57:32.257Z,98772.44
2024-03-02T22:59:59.519Z,98767.66
2024-03-02T23:02:26.879Z,98774.56
2024-03-02T23:04:54.227Z,98778.44
2024-03-02T23:07:23.300Z,98785.34
2024-03-02T23:09:50.807Z,98784.09
2024-03-02T23:12:18.102Z,98779.00
2024-03-02T23:14:45.478Z,98784.44
2024-03-02T23:17:12.748Z,98777.38
2024-03-02T23:19:40.124Z,98781.25
2024-03-02T23:22:08.586Z,98770.47
2024-03-02T23:24:35.857Z,98775.59
2024-03-02T23:27:05.893Z,98773.31
2024-03-02T23:29:33.906Z,98778.78
2024-03-02T23:32:01.257Z,98774.44
2024-03-02T23:34:29.653Z,98782.97
2024-03-02T23:36:57.019Z,98776.72
2024-03-02T23:39:43.050Z,98777.38
2024-03-02T23:42:10.717Z,98781.25
2024-03-02T23:44:37.997Z,98784.31
2024-03-02T23:47:06.949Z,98784.19
2024-03-02T23:49:34.461Z,98793.53
2024-03-02T23:52:01.871Z,98790.00
2024-03-02T23:54:29.184Z,98784.41
2024-03-02T23:56:56.799Z,98787.47
2024-03-02T23:59:24.056Z,98783.47
